SHT84M EGPH-EIDW
Flight info
| Callsign | SHT84M |
|---|---|
| Flight time | 0h 50m |
| Altitude | 24000 |
| Route | GOSAM P600 FENIK/N0409F220 P600 BLACA P620 NIMAT NIMAT3R |
| Aircraft | B736/M-SDE2E3FGHIRWXY/LB1 |
Departure
| Time | 2026-04-21 20:21 |
|---|---|
| Airport | Edinburgh Airport (EGPH) |
Arrival
| Time | 2026-04-21 21:11 |
|---|---|
| Airport | Dublin Airport (EIDW) |
| Time | Latitude | Longitude | Altitude | Speed | Heading |
|---|---|---|---|---|---|
| 2026-04-21 19:52 | 55.94608 | -3.36844 | 106 ft | 0 kts | 270° |
| 2026-04-21 20:09 | 55.94608 | -3.36826 | 106 ft | 2 kts | 270° |
| 2026-04-21 20:09 | 55.94608 | -3.36797 | 103 ft | 2 kts | 271° |
| 2026-04-21 20:10 | 55.94606 | -3.36768 | 104 ft | 2 kts | 308° |
| 2026-04-21 20:10 | 55.94596 | -3.36754 | 105 ft | 1 kts | 352° |
| 2026-04-21 20:10 | 55.94594 | -3.36754 | 106 ft | 0 kts | 354° |
| 2026-04-21 20:12 | 55.94594 | -3.36753 | 106 ft | 0 kts | 358° |
| 2026-04-21 20:12 | 55.94609 | -3.36742 | 104 ft | 6 kts | 19° |
| 2026-04-21 20:13 | 55.94661 | -3.36735 | 106 ft | 9 kts | 0° |
| 2026-04-21 20:13 | 55.94737 | -3.36734 | 106 ft | 12 kts | 360° |
| 2026-04-21 20:13 | 55.94819 | -3.36777 | 107 ft | 13 kts | 355° |
| 2026-04-21 20:13 | 55.94902 | -3.36813 | 108 ft | 13 kts | 322° |
| 2026-04-21 20:14 | 55.94906 | -3.36952 | 106 ft | 12 kts | 238° |
| 2026-04-21 20:14 | 55.94863 | -3.37080 | 107 ft | 12 kts | 239° |
| 2026-04-21 20:14 | 55.94820 | -3.37207 | 108 ft | 12 kts | 239° |
| 2026-04-21 20:14 | 55.94779 | -3.37330 | 111 ft | 11 kts | 239° |
| 2026-04-21 20:15 | 55.94738 | -3.37451 | 113 ft | 12 kts | 239° |
| 2026-04-21 20:15 | 55.94692 | -3.37588 | 114 ft | 15 kts | 238° |
| 2026-04-21 20:15 | 55.94628 | -3.37774 | 115 ft | 20 kts | 239° |
| 2026-04-21 20:15 | 55.94547 | -3.38014 | 115 ft | 24 kts | 239° |
| 2026-04-21 20:16 | 55.94455 | -3.38282 | 113 ft | 25 kts | 238° |
| 2026-04-21 20:16 | 55.94373 | -3.38528 | 115 ft | 20 kts | 239° |
| 2026-04-21 20:16 | 55.94339 | -3.38625 | 118 ft | 18 kts | 238° |
| 2026-04-21 20:16 | 55.94282 | -3.38810 | 121 ft | 12 kts | 261° |
| 2026-04-21 20:17 | 55.94308 | -3.38891 | 121 ft | 3 kts | 329° |
| 2026-04-21 20:17 | 55.94313 | -3.38895 | 121 ft | 0 kts | 333° |
| 2026-04-21 20:19 | 55.94324 | -3.38906 | 123 ft | 6 kts | 332° |
| 2026-04-21 20:19 | 55.94390 | -3.38963 | 120 ft | 14 kts | 350° |
| 2026-04-21 20:19 | 55.94445 | -3.38881 | 118 ft | 0 kts | 61° |
| 2026-04-21 20:20 | 55.94456 | -3.38844 | 120 ft | 19 kts | 61° |
| 2026-04-21 20:20 | 55.94675 | -3.38200 | 117 ft | 99 kts | 59° |
| 2026-04-21 20:21 | 55.95132 | -3.36828 | 261 ft | 144 kts | 62° |
| 2026-04-21 20:21 | 55.95623 | -3.35229 | 936 ft | 155 kts | 63° |
| 2026-04-21 20:21 | 55.96323 | -3.33706 | 1662 ft | 164 kts | 43° |
| 2026-04-21 20:21 | 55.97208 | -3.32381 | 2424 ft | 173 kts | 44° |
| 2026-04-21 20:22 | 55.98177 | -3.30819 | 2705 ft | 201 kts | 46° |
| 2026-04-21 20:22 | 56.00646 | -3.27424 | 3388 ft | 254 kts | 19° |
| 2026-04-21 20:22 | 56.02443 | -3.27485 | 4152 ft | 271 kts | 346° |
| 2026-04-21 20:23 | 56.04030 | -3.29373 | 5129 ft | 280 kts | 311° |
| 2026-04-21 20:23 | 56.04881 | -3.32532 | 6134 ft | 291 kts | 280° |
| 2026-04-21 20:23 | 56.04749 | -3.36110 | 7188 ft | 290 kts | 250° |
| 2026-04-21 20:23 | 56.03795 | -3.39261 | 8162 ft | 289 kts | 236° |
| 2026-04-21 20:24 | 56.02809 | -3.42440 | 9082 ft | 296 kts | 243° |
| 2026-04-21 20:24 | 56.02027 | -3.45882 | 9989 ft | 301 kts | 246° |
| 2026-04-21 20:24 | 56.01292 | -3.49087 | 10809 ft | 305 kts | 247° |
| 2026-04-21 20:24 | 56.00553 | -3.52867 | 11216 ft | 329 kts | 251° |
| 2026-04-21 20:25 | 55.99890 | -3.56960 | 11435 ft | 356 kts | 253° |
| 2026-04-21 20:25 | 55.99246 | -3.61346 | 11905 ft | 371 kts | 255° |
| 2026-04-21 20:25 | 55.98603 | -3.65850 | 12725 ft | 375 kts | 255° |
| 2026-04-21 20:25 | 55.97959 | -3.70389 | 13623 ft | 378 kts | 255° |
| 2026-04-21 20:26 | 55.97305 | -3.74970 | 14456 ft | 383 kts | 254° |
| 2026-04-21 20:26 | 55.96641 | -3.79593 | 15216 ft | 387 kts | 254° |
| 2026-04-21 20:26 | 55.95967 | -3.84266 | 16000 ft | 391 kts | 254° |
| 2026-04-21 20:26 | 55.95283 | -3.88988 | 16773 ft | 395 kts | 254° |
| 2026-04-21 20:27 | 55.94588 | -3.93757 | 17585 ft | 398 kts | 254° |
| 2026-04-21 20:27 | 55.93794 | -3.98514 | 18333 ft | 402 kts | 244° |
| 2026-04-21 20:27 | 55.92173 | -4.02520 | 19031 ft | 399 kts | 218° |
| 2026-04-21 20:27 | 55.89921 | -4.05224 | 19860 ft | 395 kts | 207° |
| 2026-04-21 20:28 | 55.87531 | -4.07714 | 20481 ft | 401 kts | 209° |
| 2026-04-21 20:28 | 55.85192 | -4.10497 | 21062 ft | 408 kts | 214° |
| 2026-04-21 20:28 | 55.82956 | -4.13659 | 21730 ft | 413 kts | 218° |
| 2026-04-21 20:28 | 55.80784 | -4.17033 | 22391 ft | 416 kts | 219° |
| 2026-04-21 20:29 | 55.78611 | -4.20487 | 23007 ft | 421 kts | 219° |
| 2026-04-21 20:29 | 55.76285 | -4.23657 | 23625 ft | 423 kts | 212° |
| 2026-04-21 20:29 | 55.73817 | -4.26551 | 24203 ft | 427 kts | 211° |
| 2026-04-21 20:29 | 55.71328 | -4.29456 | 24523 ft | 431 kts | 212° |
| 2026-04-21 20:30 | 55.68813 | -4.32465 | 24522 ft | 440 kts | 213° |
| 2026-04-21 20:30 | 55.66288 | -4.35566 | 24519 ft | 444 kts | 213° |
| 2026-04-21 20:30 | 55.63753 | -4.38711 | 24515 ft | 443 kts | 214° |
| 2026-04-21 20:30 | 55.61234 | -4.41839 | 24510 ft | 443 kts | 214° |
| 2026-04-21 20:31 | 55.58709 | -4.44964 | 24511 ft | 443 kts | 214° |
| 2026-04-21 20:31 | 55.56192 | -4.48067 | 24508 ft | 442 kts | 214° |
| 2026-04-21 20:31 | 55.53661 | -4.51177 | 24508 ft | 442 kts | 213° |
| 2026-04-21 20:31 | 55.51137 | -4.54269 | 24509 ft | 441 kts | 214° |
| 2026-04-21 20:32 | 55.48620 | -4.57348 | 24509 ft | 440 kts | 214° |
| 2026-04-21 20:32 | 55.46106 | -4.60416 | 24511 ft | 439 kts | 214° |
| 2026-04-21 20:32 | 55.43594 | -4.63478 | 24509 ft | 439 kts | 213° |
| 2026-04-21 20:32 | 55.41084 | -4.66532 | 24505 ft | 438 kts | 214° |
| 2026-04-21 20:33 | 55.38575 | -4.69582 | 24509 ft | 438 kts | 214° |
| 2026-04-21 20:33 | 55.36067 | -4.72627 | 24502 ft | 438 kts | 214° |
| 2026-04-21 20:33 | 55.33560 | -4.75665 | 24499 ft | 437 kts | 214° |
| 2026-04-21 20:33 | 55.31037 | -4.78661 | 24490 ft | 437 kts | 211° |
| 2026-04-21 20:34 | 55.28369 | -4.81206 | 24491 ft | 433 kts | 206° |
| 2026-04-21 20:34 | 55.26539 | -4.82769 | 24489 ft | 433 kts | 205° |
| 2026-04-21 20:34 | 55.23811 | -4.85063 | 24494 ft | 437 kts | 205° |
| 2026-04-21 20:34 | 55.20176 | -4.88198 | 24475 ft | 442 kts | 206° |
| 2026-04-21 20:35 | 55.18315 | -4.89830 | 24472 ft | 443 kts | 206° |
| 2026-04-21 20:35 | 55.15553 | -4.92246 | 24464 ft | 443 kts | 206° |
| 2026-04-21 20:35 | 55.12798 | -4.94636 | 24459 ft | 442 kts | 206° |
| 2026-04-21 20:35 | 55.10045 | -4.97017 | 24451 ft | 440 kts | 206° |
| 2026-04-21 20:36 | 55.07337 | -4.99371 | 24452 ft | 439 kts | 207° |
| 2026-04-21 20:36 | 55.04577 | -5.01778 | 24455 ft | 438 kts | 207° |
| 2026-04-21 20:36 | 55.01853 | -5.04152 | 24453 ft | 437 kts | 207° |
| 2026-04-21 20:36 | 54.99136 | -5.06516 | 24449 ft | 437 kts | 207° |
| 2026-04-21 20:37 | 54.96412 | -5.08882 | 24449 ft | 437 kts | 207° |
| 2026-04-21 20:37 | 54.93689 | -5.11240 | 24448 ft | 438 kts | 208° |
| 2026-04-21 20:37 | 54.90994 | -5.13572 | 24447 ft | 439 kts | 207° |
| 2026-04-21 20:37 | 54.88208 | -5.15780 | 24421 ft | 442 kts | 202° |
| 2026-04-21 20:38 | 54.85245 | -5.17247 | 24445 ft | 444 kts | 194° |
| 2026-04-21 20:38 | 54.82218 | -5.18336 | 24443 ft | 445 kts | 193° |
| 2026-04-21 20:38 | 54.79174 | -5.19386 | 24437 ft | 446 kts | 193° |
| 2026-04-21 20:38 | 54.76126 | -5.20443 | 24437 ft | 447 kts | 194° |
| 2026-04-21 20:39 | 54.73080 | -5.21522 | 24435 ft | 447 kts | 194° |
| 2026-04-21 20:39 | 54.70024 | -5.22625 | 24440 ft | 448 kts | 194° |
| 2026-04-21 20:39 | 54.66973 | -5.23739 | 24435 ft | 448 kts | 194° |
| 2026-04-21 20:39 | 54.63921 | -5.24857 | 24436 ft | 449 kts | 195° |
| 2026-04-21 20:40 | 54.60863 | -5.25978 | 24436 ft | 449 kts | 195° |
| 2026-04-21 20:40 | 54.57805 | -5.27096 | 24435 ft | 450 kts | 195° |
| 2026-04-21 20:40 | 54.54745 | -5.28212 | 24433 ft | 450 kts | 195° |
| 2026-04-21 20:40 | 54.51715 | -5.29314 | 24431 ft | 451 kts | 195° |
| 2026-04-21 20:41 | 54.48684 | -5.30657 | 24421 ft | 448 kts | 202° |
| 2026-04-21 20:41 | 54.45833 | -5.32747 | 24433 ft | 444 kts | 210° |
| 2026-04-21 20:41 | 54.43067 | -5.35122 | 24427 ft | 444 kts | 211° |
| 2026-04-21 20:41 | 54.40302 | -5.37526 | 24419 ft | 445 kts | 211° |
| 2026-04-21 20:42 | 54.37540 | -5.39910 | 24419 ft | 445 kts | 211° |
| 2026-04-21 20:42 | 54.34768 | -5.42275 | 24423 ft | 444 kts | 211° |
| 2026-04-21 20:42 | 54.31999 | -5.44613 | 24419 ft | 444 kts | 211° |
| 2026-04-21 20:42 | 54.29227 | -5.46938 | 24415 ft | 443 kts | 211° |
| 2026-04-21 20:43 | 54.26461 | -5.49250 | 24413 ft | 440 kts | 211° |
| 2026-04-21 20:43 | 54.23726 | -5.51530 | 24402 ft | 433 kts | 211° |
| 2026-04-21 20:43 | 54.21025 | -5.53781 | 24406 ft | 431 kts | 211° |
| 2026-04-21 20:43 | 54.18324 | -5.56034 | 24415 ft | 432 kts | 211° |
| 2026-04-21 20:44 | 54.15624 | -5.58282 | 24381 ft | 433 kts | 211° |
| 2026-04-21 20:44 | 54.12911 | -5.60538 | 23732 ft | 432 kts | 210° |
| 2026-04-21 20:44 | 54.10228 | -5.62774 | 23036 ft | 424 kts | 210° |
| 2026-04-21 20:44 | 54.07595 | -5.64970 | 22385 ft | 416 kts | 209° |
| 2026-04-21 20:45 | 54.05051 | -5.67090 | 21741 ft | 410 kts | 209° |
| 2026-04-21 20:45 | 54.02512 | -5.69205 | 21135 ft | 403 kts | 209° |
| 2026-04-21 20:45 | 54.00006 | -5.71288 | 20520 ft | 398 kts | 208° |
| 2026-04-21 20:45 | 53.97523 | -5.73317 | 19891 ft | 394 kts | 205° |
| 2026-04-21 20:46 | 53.94879 | -5.74458 | 19334 ft | 392 kts | 186° |
| 2026-04-21 20:46 | 53.92167 | -5.74707 | 18767 ft | 388 kts | 183° |
| 2026-04-21 20:46 | 53.89480 | -5.74844 | 18084 ft | 385 kts | 182° |
| 2026-04-21 20:46 | 53.86813 | -5.74969 | 17470 ft | 380 kts | 181° |
| 2026-04-21 20:47 | 53.84185 | -5.75112 | 16883 ft | 376 kts | 181° |
| 2026-04-21 20:47 | 53.81589 | -5.75274 | 16310 ft | 371 kts | 181° |
| 2026-04-21 20:47 | 53.79026 | -5.75449 | 15746 ft | 366 kts | 180° |
| 2026-04-21 20:47 | 53.76490 | -5.75628 | 15176 ft | 362 kts | 179° |
| 2026-04-21 20:48 | 53.73984 | -5.75808 | 14624 ft | 358 kts | 179° |
| 2026-04-21 20:48 | 53.71499 | -5.75982 | 14061 ft | 355 kts | 179° |
| 2026-04-21 20:48 | 53.69048 | -5.76228 | 13437 ft | 354 kts | 186° |
| 2026-04-21 20:48 | 53.66720 | -5.77605 | 12870 ft | 358 kts | 206° |
| 2026-04-21 20:49 | 53.64816 | -5.80323 | 12420 ft | 362 kts | 227° |
| 2026-04-21 20:49 | 53.63523 | -5.83950 | 12004 ft | 367 kts | 248° |
| 2026-04-21 20:49 | 53.62865 | -5.88145 | 11491 ft | 372 kts | 255° |
| 2026-04-21 20:49 | 53.62322 | -5.92415 | 11149 ft | 369 kts | 256° |
| 2026-04-21 20:50 | 53.61810 | -5.96531 | 10908 ft | 357 kts | 256° |
| 2026-04-21 20:50 | 53.61299 | -6.00552 | 10744 ft | 344 kts | 256° |
| 2026-04-21 20:50 | 53.60794 | -6.04410 | 10583 ft | 330 kts | 255° |
| 2026-04-21 20:50 | 53.60302 | -6.08092 | 10435 ft | 314 kts | 255° |
| 2026-04-21 20:51 | 53.59829 | -6.11590 | 10209 ft | 302 kts | 255° |
| 2026-04-21 20:51 | 53.59365 | -6.14997 | 9869 ft | 295 kts | 254° |
| 2026-04-21 20:51 | 53.58911 | -6.18325 | 9541 ft | 289 kts | 254° |
| 2026-04-21 20:51 | 53.58465 | -6.21602 | 9240 ft | 286 kts | 254° |
| 2026-04-21 20:52 | 53.58020 | -6.24854 | 8946 ft | 284 kts | 254° |
| 2026-04-21 20:52 | 53.57576 | -6.28090 | 8649 ft | 283 kts | 254° |
| 2026-04-21 20:52 | 53.57138 | -6.31284 | 8531 ft | 280 kts | 254° |
| 2026-04-21 20:52 | 53.56906 | -6.34545 | 8390 ft | 285 kts | 275° |
| 2026-04-21 20:53 | 53.57545 | -6.37615 | 8342 ft | 274 kts | 307° |
| 2026-04-21 20:53 | 53.58840 | -6.39779 | 8340 ft | 261 kts | 331° |
| 2026-04-21 20:53 | 53.60417 | -6.41282 | 8343 ft | 256 kts | 336° |
| 2026-04-21 20:53 | 53.61980 | -6.42673 | 8347 ft | 258 kts | 336° |
| 2026-04-21 20:54 | 53.63580 | -6.44105 | 8354 ft | 263 kts | 336° |
| 2026-04-21 20:54 | 53.65079 | -6.45912 | 8319 ft | 270 kts | 311° |
| 2026-04-21 20:54 | 53.66089 | -6.48575 | 8348 ft | 270 kts | 301° |
| 2026-04-21 20:54 | 53.67027 | -6.51327 | 8340 ft | 270 kts | 301° |
| 2026-04-21 20:55 | 53.67966 | -6.54067 | 8330 ft | 268 kts | 302° |
| 2026-04-21 20:55 | 53.68899 | -6.56776 | 8318 ft | 268 kts | 302° |
| 2026-04-21 20:55 | 53.69723 | -6.59622 | 8177 ft | 273 kts | 283° |
| 2026-04-21 20:55 | 53.69844 | -6.62794 | 8079 ft | 270 kts | 267° |
| 2026-04-21 20:56 | 53.69800 | -6.65960 | 8003 ft | 270 kts | 267° |
| 2026-04-21 20:56 | 53.69763 | -6.69122 | 7993 ft | 268 kts | 267° |
| 2026-04-21 20:56 | 53.69731 | -6.72271 | 7987 ft | 268 kts | 267° |
| 2026-04-21 20:56 | 53.69639 | -6.75415 | 7974 ft | 268 kts | 255° |
| 2026-04-21 20:57 | 53.68907 | -6.78233 | 8000 ft | 260 kts | 233° |
| 2026-04-21 20:57 | 53.67937 | -6.80827 | 7986 ft | 262 kts | 233° |
| 2026-04-21 20:57 | 53.66960 | -6.83421 | 7985 ft | 263 kts | 233° |
| 2026-04-21 20:57 | 53.65984 | -6.86030 | 7984 ft | 263 kts | 233° |
| 2026-04-21 20:58 | 53.65005 | -6.88644 | 7980 ft | 263 kts | 231° |
| 2026-04-21 20:58 | 53.63709 | -6.90686 | 7987 ft | 251 kts | 204° |
| 2026-04-21 20:58 | 53.62194 | -6.92034 | 7968 ft | 241 kts | 200° |
| 2026-04-21 20:58 | 53.60738 | -6.93268 | 7958 ft | 228 kts | 200° |
| 2026-04-21 20:59 | 53.59372 | -6.94425 | 7981 ft | 219 kts | 199° |
| 2026-04-21 20:59 | 53.57948 | -6.94992 | 7974 ft | 206 kts | 168° |
| 2026-04-21 20:59 | 53.56641 | -6.94207 | 7945 ft | 199 kts | 140° |
| 2026-04-21 20:59 | 53.55759 | -6.92464 | 7714 ft | 195 kts | 114° |
| 2026-04-21 21:00 | 53.55418 | -6.90284 | 7513 ft | 193 kts | 97° |
| 2026-04-21 21:00 | 53.55290 | -6.88053 | 7306 ft | 190 kts | 96° |
| 2026-04-21 21:00 | 53.55184 | -6.85851 | 7100 ft | 188 kts | 95° |
| 2026-04-21 21:00 | 53.55078 | -6.83674 | 6905 ft | 186 kts | 95° |
| 2026-04-21 21:01 | 53.54969 | -6.81508 | 6703 ft | 185 kts | 96° |
| 2026-04-21 21:01 | 53.54858 | -6.79361 | 6512 ft | 184 kts | 96° |
| 2026-04-21 21:01 | 53.54746 | -6.77231 | 6300 ft | 183 kts | 96° |
| 2026-04-21 21:01 | 53.54633 | -6.75112 | 6121 ft | 181 kts | 96° |
| 2026-04-21 21:02 | 53.54520 | -6.73005 | 5928 ft | 180 kts | 96° |
| 2026-04-21 21:02 | 53.54407 | -6.70912 | 5751 ft | 179 kts | 96° |
| 2026-04-21 21:02 | 53.54022 | -6.68955 | 5553 ft | 180 kts | 123° |
| 2026-04-21 21:02 | 53.53060 | -6.67607 | 5374 ft | 186 kts | 149° |
| 2026-04-21 21:03 | 53.51757 | -6.67232 | 5180 ft | 197 kts | 175° |
| 2026-04-21 21:03 | 53.50388 | -6.67432 | 4965 ft | 196 kts | 177° |
| 2026-04-21 21:03 | 53.49065 | -6.67640 | 4730 ft | 185 kts | 176° |
| 2026-04-21 21:03 | 53.47836 | -6.67725 | 4506 ft | 167 kts | 158° |
| 2026-04-21 21:04 | 53.46836 | -6.66954 | 4404 ft | 156 kts | 134° |
| 2026-04-21 21:04 | 53.46384 | -6.65421 | 4253 ft | 147 kts | 98° |
| 2026-04-21 21:04 | 53.46139 | -6.63748 | 4082 ft | 149 kts | 105° |
| 2026-04-21 21:04 | 53.45895 | -6.62111 | 3912 ft | 140 kts | 103° |
| 2026-04-21 21:05 | 53.45696 | -6.60576 | 3744 ft | 130 kts | 100° |
| 2026-04-21 21:05 | 53.45550 | -6.59103 | 3616 ft | 127 kts | 98° |
| 2026-04-21 21:05 | 53.45430 | -6.57637 | 3405 ft | 127 kts | 97° |
| 2026-04-21 21:05 | 53.45329 | -6.56192 | 3303 ft | 126 kts | 96° |
| 2026-04-21 21:06 | 53.45238 | -6.54747 | 3264 ft | 124 kts | 96° |
| 2026-04-21 21:06 | 53.45154 | -6.53305 | 3231 ft | 123 kts | 96° |
| 2026-04-21 21:06 | 53.45059 | -6.51908 | 3241 ft | 120 kts | 97° |
| 2026-04-21 21:06 | 53.44965 | -6.50480 | 3040 ft | 126 kts | 97° |
| 2026-04-21 21:07 | 53.44858 | -6.49025 | 2902 ft | 124 kts | 98° |
| 2026-04-21 21:07 | 53.44781 | -6.47614 | 2672 ft | 120 kts | 96° |
| 2026-04-21 21:07 | 53.44708 | -6.46217 | 2466 ft | 119 kts | 96° |
| 2026-04-21 21:07 | 53.44631 | -6.44851 | 2366 ft | 114 kts | 95° |
| 2026-04-21 21:08 | 53.44562 | -6.43544 | 2259 ft | 113 kts | 95° |
| 2026-04-21 21:08 | 53.44471 | -6.42227 | 2100 ft | 114 kts | 97° |
| 2026-04-21 21:08 | 53.44373 | -6.40941 | 1985 ft | 109 kts | 94° |
| 2026-04-21 21:08 | 53.44348 | -6.39682 | 1742 ft | 107 kts | 93° |
| 2026-04-21 21:09 | 53.44280 | -6.38458 | 1552 ft | 105 kts | 95° |
| 2026-04-21 21:09 | 53.44196 | -6.37232 | 1422 ft | 107 kts | 95° |
| 2026-04-21 21:09 | 53.44138 | -6.35993 | 1307 ft | 109 kts | 93° |
| 2026-04-21 21:09 | 53.44078 | -6.34711 | 1143 ft | 112 kts | 94° |
| 2026-04-21 21:10 | 53.44002 | -6.33389 | 1009 ft | 116 kts | 93° |
| 2026-04-21 21:10 | 53.43947 | -6.32020 | 807 ft | 119 kts | 93° |
| 2026-04-21 21:10 | 53.43860 | -6.30654 | 627 ft | 116 kts | 93° |
| 2026-04-21 21:10 | 53.43789 | -6.29329 | 408 ft | 111 kts | 93° |
| 2026-04-21 21:11 | 53.43718 | -6.28057 | 224 ft | 108 kts | 94° |
| 2026-04-21 21:11 | 53.43662 | -6.27033 | 220 ft | 59 kts | 95° |
| 2026-04-21 21:11 | 53.43631 | -6.26481 | 227 ft | 44 kts | 95° |
| 2026-04-21 21:11 | 53.43603 | -6.25965 | 227 ft | 38 kts | 95° |
| 2026-04-21 21:12 | 53.43577 | -6.25507 | 219 ft | 41 kts | 98° |
| 2026-04-21 21:12 | 53.43483 | -6.25094 | 221 ft | 35 kts | 120° |
| 2026-04-21 21:12 | 53.43379 | -6.24788 | 222 ft | 21 kts | 116° |